Ana Sayfa
METAR-TAF:

METAR-TAF

Havaalanları :

Elim, Alaska, Amerika Birleşik Devletleri

Enlem: 64-36-54N, Boylam: 162-16-14W, yükseklik: 49 m

Güncel hava durumu gözlemi

Rapor saat 03:56 UTC de 13 dakika önce yapıldı.
Rüzgar güneydan 5 kt
Sıcaklık -4°C
Nem 86%
Basınç 1024 hPa
Görüş mesafesi: 16.1 km
700 ft yükseklikte çok bulutlu

METAR: PFEL 010356Z AUTO 18005KT 10SM OVC007 M04/M06 A3025 RMK AO2 CIG 005V008 SLP248 T10391056 FZRANO

Saat: 20:09 (04:09 UTC)


TAF: eksik

4.000'den fazla havaalanı için hava durumu gözlemleri ve tahminleri (METAR ve TAF raporları).

Kullanılabilir istasyonlar harita üzerinde sarı ve kırmızı noktalarla gösterilir.

İstasyonun adını görmek için fareyi noktanın üzerinde gezdirin.

Sonrasında hava gözlem ve tahminlerini görmek için tıklayın.

Haritayı değiştirmek için: yaklaştırmak için siyah artı işaretli yeşil düğmeye ve uzaklaştırmak için de eksi işaretli düğmeye hızla tıklayın; bitişik haritalar için yeşil okları kullanın.


METAR-TAF: